sensor_id;sensor_type;location;lat;lon;timestamp;temperature;humidity
80176;DHT22;69501;42.124;24.722;2023-06-26T00:00:00;25.30;51.90
80176;DHT22;69501;42.124;24.722;2023-06-26T00:02:25;25.30;51.50
80176;DHT22;69501;42.124;24.722;2023-06-26T00:04:51;25.30;51.90
80176;DHT22;69501;42.124;24.722;2023-06-26T00:07:19;25.30;52.20
80176;DHT22;69501;42.124;24.722;2023-06-26T00:09:45;25.30;52.10
80176;DHT22;69501;42.124;24.722;2023-06-26T00:12:11;25.40;52.00
80176;DHT22;69501;42.124;24.722;2023-06-26T00:14:37;25.50;52.00
80176;DHT22;69501;42.124;24.722;2023-06-26T00:17:02;25.50;51.70
80176;DHT22;69501;42.124;24.722;2023-06-26T00:19:28;25.50;51.70
80176;DHT22;69501;42.124;24.722;2023-06-26T00:21:53;25.50;51.90
80176;DHT22;69501;42.124;24.722;2023-06-26T00:24:19;25.50;51.90
80176;DHT22;69501;42.124;24.722;2023-06-26T00:26:48;25.50;51.60
80176;DHT22;69501;42.124;24.722;2023-06-26T00:29:14;25.50;51.70
80176;DHT22;69501;42.124;24.722;2023-06-26T00:31:39;25.50;51.60
80176;DHT22;69501;42.124;24.722;2023-06-26T00:34:06;25.60;51.90
80176;DHT22;69501;42.124;24.722;2023-06-26T00:36:31;25.50;51.40
80176;DHT22;69501;42.124;24.722;2023-06-26T00:38:58;25.50;51.40
80176;DHT22;69501;42.124;24.722;2023-06-26T00:41:24;25.60;51.60
80176;DHT22;69501;42.124;24.722;2023-06-26T00:43:49;25.60;51.80
80176;DHT22;69501;42.124;24.722;2023-06-26T00:46:16;25.70;51.50
80176;DHT22;69501;42.124;24.722;2023-06-26T00:48:43;25.80;51.20
80176;DHT22;69501;42.124;24.722;2023-06-26T00:51:09;25.80;50.90
80176;DHT22;69501;42.124;24.722;2023-06-26T00:53:35;25.90;51.00
80176;DHT22;69501;42.124;24.722;2023-06-26T00:56:05;25.90;51.10
80176;DHT22;69501;42.124;24.722;2023-06-26T00:58:31;26.00;51.10
80176;DHT22;69501;42.124;24.722;2023-06-26T01:00:57;25.90;50.70
80176;DHT22;69501;42.124;24.722;2023-06-26T01:03:24;26.00;50.90
80176;DHT22;69501;42.124;24.722;2023-06-26T01:05:51;26.00;50.80
80176;DHT22;69501;42.124;24.722;2023-06-26T01:08:18;26.00;50.60
80176;DHT22;69501;42.124;24.722;2023-06-26T01:10:44;26.00;50.80
80176;DHT22;69501;42.124;24.722;2023-06-26T01:13:10;26.00;50.80
80176;DHT22;69501;42.124;24.722;2023-06-26T01:15:36;26.10;50.50
80176;DHT22;69501;42.124;24.722;2023-06-26T01:18:02;25.90;50.60
80176;DHT22;69501;42.124;24.722;2023-06-26T01:20:32;25.90;51.00
80176;DHT22;69501;42.124;24.722;2023-06-26T01:28:10;25.80;51.40
80176;DHT22;69501;42.124;24.722;2023-06-26T01:30:39;25.70;51.50
80176;DHT22;69501;42.124;24.722;2023-06-26T01:33:06;25.70;51.60
80176;DHT22;69501;42.124;24.722;2023-06-26T01:35:31;25.60;51.90
80176;DHT22;69501;42.124;24.722;2023-06-26T01:38:17;25.50;52.20
80176;DHT22;69501;42.124;24.722;2023-06-26T01:40:43;25.50;52.40
80176;DHT22;69501;42.124;24.722;2023-06-26T01:46:23;25.30;52.70
80176;DHT22;69501;42.124;24.722;2023-06-26T01:48:59;25.10;53.10
80176;DHT22;69501;42.124;24.722;2023-06-26T01:51:32;25.10;53.70
80176;DHT22;69501;42.124;24.722;2023-06-26T01:53:59;25.00;53.90
80176;DHT22;69501;42.124;24.722;2023-06-26T01:56:26;25.00;53.90
80176;DHT22;69501;42.124;24.722;2023-06-26T01:58:54;25.10;54.00
80176;DHT22;69501;42.124;24.722;2023-06-26T02:01:21;25.00;54.10
80176;DHT22;69501;42.124;24.722;2023-06-26T02:03:47;24.90;54.20
80176;DHT22;69501;42.124;24.722;2023-06-26T02:06:13;24.90;54.30
80176;DHT22;69501;42.124;24.722;2023-06-26T02:08:39;24.90;54.30
80176;DHT22;69501;42.124;24.722;2023-06-26T02:11:05;24.90;54.30
80176;DHT22;69501;42.124;24.722;2023-06-26T02:13:31;24.90;54.30
80176;DHT22;69501;42.124;24.722;2023-06-26T02:15:56;24.90;54.40
80176;DHT22;69501;42.124;24.722;2023-06-26T02:18:22;24.90;54.40
80176;DHT22;69501;42.124;24.722;2023-06-26T02:20:49;24.90;54.60
80176;DHT22;69501;42.124;24.722;2023-06-26T02:23:14;24.90;54.40
80176;DHT22;69501;42.124;24.722;2023-06-26T02:25:40;25.00;54.50
80176;DHT22;69501;42.124;24.722;2023-06-26T02:28:06;24.90;54.70
80176;DHT22;69501;42.124;24.722;2023-06-26T02:30:32;24.90;54.50
80176;DHT22;69501;42.124;24.722;2023-06-26T02:32:57;25.00;54.40
80176;DHT22;69501;42.124;24.722;2023-06-26T02:35:23;25.00;54.40
80176;DHT22;69501;42.124;24.722;2023-06-26T02:37:48;25.10;54.40
80176;DHT22;69501;42.124;24.722;2023-06-26T02:40:14;25.10;54.30
80176;DHT22;69501;42.124;24.722;2023-06-26T02:42:40;25.10;54.40
80176;DHT22;69501;42.124;24.722;2023-06-26T02:45:06;25.00;54.20
80176;DHT22;69501;42.124;24.722;2023-06-26T02:47:31;25.00;54.80
80176;DHT22;69501;42.124;24.722;2023-06-26T02:49:57;25.00;54.10
80176;DHT22;69501;42.124;24.722;2023-06-26T02:52:23;24.90;54.10
80176;DHT22;69501;42.124;24.722;2023-06-26T02:54:48;24.90;54.10
80176;DHT22;69501;42.124;24.722;2023-06-26T02:57:14;24.90;54.30
80176;DHT22;69501;42.124;24.722;2023-06-26T02:59:40;25.00;54.30
80176;DHT22;69501;42.124;24.722;2023-06-26T03:02:06;24.90;54.00
80176;DHT22;69501;42.124;24.722;2023-06-26T03:04:31;25.00;53.90
80176;DHT22;69501;42.124;24.722;2023-06-26T03:07:02;25.00;53.60
80176;DHT22;69501;42.124;24.722;2023-06-26T03:09:28;24.90;53.80
80176;DHT22;69501;42.124;24.722;2023-06-26T03:11:53;24.90;53.90
80176;DHT22;69501;42.124;24.722;2023-06-26T03:14:23;24.90;53.90
80176;DHT22;69501;42.124;24.722;2023-06-26T03:16:49;25.00;53.90
80176;DHT22;69501;42.124;24.722;2023-06-26T03:19:18;25.00;53.90
80176;DHT22;69501;42.124;24.722;2023-06-26T03:21:43;25.00;54.00
80176;DHT22;69501;42.124;24.722;2023-06-26T03:24:09;25.00;53.70
80176;DHT22;69501;42.124;24.722;2023-06-26T03:26:35;25.00;53.90
80176;DHT22;69501;42.124;24.722;2023-06-26T03:29:00;25.10;54.00
80176;DHT22;69501;42.124;24.722;2023-06-26T03:31:26;25.10;53.90
80176;DHT22;69501;42.124;24.722;2023-06-26T03:33:52;25.10;53.70
80176;DHT22;69501;42.124;24.722;2023-06-26T03:36:17;25.10;53.80
80176;DHT22;69501;42.124;24.722;2023-06-26T03:38:43;25.10;53.50
80176;DHT22;69501;42.124;24.722;2023-06-26T03:41:09;25.30;53.60
80176;DHT22;69501;42.124;24.722;2023-06-26T03:43:34;25.30;53.00
80176;DHT22;69501;42.124;24.722;2023-06-26T03:46:00;25.20;52.90
80176;DHT22;69501;42.124;24.722;2023-06-26T03:48:26;25.20;53.10
80176;DHT22;69501;42.124;24.722;2023-06-26T03:50:52;25.20;53.60
80176;DHT22;69501;42.124;24.722;2023-06-26T03:53:17;25.10;53.50
80176;DHT22;69501;42.124;24.722;2023-06-26T03:55:43;25.10;53.70
80176;DHT22;69501;42.124;24.722;2023-06-26T03:58:09;25.20;54.10
80176;DHT22;69501;42.124;24.722;2023-06-26T04:00:34;25.30;53.60
80176;DHT22;69501;42.124;24.722;2023-06-26T04:03:00;25.30;53.20
80176;DHT22;69501;42.124;24.722;2023-06-26T04:05:25;25.30;53.20
80176;DHT22;69501;42.124;24.722;2023-06-26T04:07:52;25.30;53.00
80176;DHT22;69501;42.124;24.722;2023-06-26T04:10:18;25.30;52.80
80176;DHT22;69501;42.124;24.722;2023-06-26T04:12:44;25.30;53.00
80176;DHT22;69501;42.124;24.722;2023-06-26T04:15:09;25.20;53.30
80176;DHT22;69501;42.124;24.722;2023-06-26T04:17:35;25.20;53.30
80176;DHT22;69501;42.124;24.722;2023-06-26T04:20:01;25.20;53.30
80176;DHT22;69501;42.124;24.722;2023-06-26T04:22:30;25.30;53.40
80176;DHT22;69501;42.124;24.722;2023-06-26T04:24:55;25.30;52.90
80176;DHT22;69501;42.124;24.722;2023-06-26T04:27:21;25.20;53.10
80176;DHT22;69501;42.124;24.722;2023-06-26T04:29:47;25.30;53.00
80176;DHT22;69501;42.124;24.722;2023-06-26T04:32:12;25.30;53.10
80176;DHT22;69501;42.124;24.722;2023-06-26T04:34:38;25.30;53.10
80176;DHT22;69501;42.124;24.722;2023-06-26T04:37:06;25.30;52.90
80176;DHT22;69501;42.124;24.722;2023-06-26T04:39:33;25.30;52.90
80176;DHT22;69501;42.124;24.722;2023-06-26T04:41:59;25.30;52.70
80176;DHT22;69501;42.124;24.722;2023-06-26T04:44:24;25.40;52.80
80176;DHT22;69501;42.124;24.722;2023-06-26T04:46:50;25.40;52.50
80176;DHT22;69501;42.124;24.722;2023-06-26T04:49:17;25.40;52.70
80176;DHT22;69501;42.124;24.722;2023-06-26T04:51:43;25.40;52.50
80176;DHT22;69501;42.124;24.722;2023-06-26T04:54:12;25.50;52.60
80176;DHT22;69501;42.124;24.722;2023-06-26T04:56:38;25.50;52.40
80176;DHT22;69501;42.124;24.722;2023-06-26T04:59:05;25.50;52.20
80176;DHT22;69501;42.124;24.722;2023-06-26T05:01:31;25.50;52.10
80176;DHT22;69501;42.124;24.722;2023-06-26T05:04:00;25.60;51.90
80176;DHT22;69501;42.124;24.722;2023-06-26T05:06:26;25.70;51.40
80176;DHT22;69501;42.124;24.722;2023-06-26T05:08:52;25.60;51.30
80176;DHT22;69501;42.124;24.722;2023-06-26T05:11:17;25.60;51.50
80176;DHT22;69501;42.124;24.722;2023-06-26T05:13:43;25.70;51.70
80176;DHT22;69501;42.124;24.722;2023-06-26T05:16:09;25.70;51.50
80176;DHT22;69501;42.124;24.722;2023-06-26T05:18:38;25.80;51.90
80176;DHT22;69501;42.124;24.722;2023-06-26T05:21:04;25.80;51.30
80176;DHT22;69501;42.124;24.722;2023-06-26T05:23:33;25.90;50.50
80176;DHT22;69501;42.124;24.722;2023-06-26T05:26:01;26.00;50.30
80176;DHT22;69501;42.124;24.722;2023-06-26T05:28:27;26.10;50.20
80176;DHT22;69501;42.124;24.722;2023-06-26T05:30:54;26.00;49.70
80176;DHT22;69501;42.124;24.722;2023-06-26T05:33:23;26.00;50.10
80176;DHT22;69501;42.124;24.722;2023-06-26T05:35:49;26.00;49.40
80176;DHT22;69501;42.124;24.722;2023-06-26T05:38:17;26.00;49.40
80176;DHT22;69501;42.124;24.722;2023-06-26T05:40:43;26.00;49.20
80176;DHT22;69501;42.124;24.722;2023-06-26T05:43:09;25.90;49.80
80176;DHT22;69501;42.124;24.722;2023-06-26T05:45:35;26.00;49.70
80176;DHT22;69501;42.124;24.722;2023-06-26T05:48:00;26.10;49.30
80176;DHT22;69501;42.124;24.722;2023-06-26T05:50:27;26.20;48.80
80176;DHT22;69501;42.124;24.722;2023-06-26T05:52:53;26.20;48.60
80176;DHT22;69501;42.124;24.722;2023-06-26T05:55:19;26.30;48.40
80176;DHT22;69501;42.124;24.722;2023-06-26T05:57:46;26.30;48.20
80176;DHT22;69501;42.124;24.722;2023-06-26T06:00:13;26.40;48.60
80176;DHT22;69501;42.124;24.722;2023-06-26T06:02:40;26.40;48.40
80176;DHT22;69501;42.124;24.722;2023-06-26T06:05:07;26.30;48.10
80176;DHT22;69501;42.124;24.722;2023-06-26T06:07:34;26.40;48.20
80176;DHT22;69501;42.124;24.722;2023-06-26T06:10:00;26.50;48.60
80176;DHT22;69501;42.124;24.722;2023-06-26T06:12:26;26.50;47.60
80176;DHT22;69501;42.124;24.722;2023-06-26T06:14:52;26.60;47.40
80176;DHT22;69501;42.124;24.722;2023-06-26T06:17:20;26.70;47.10
80176;DHT22;69501;42.124;24.722;2023-06-26T06:19:45;26.70;47.00
80176;DHT22;69501;42.124;24.722;2023-06-26T06:22:11;26.80;47.20
80176;DHT22;69501;42.124;24.722;2023-06-26T06:24:37;26.80;47.10
80176;DHT22;69501;42.124;24.722;2023-06-26T06:27:03;26.90;46.90
80176;DHT22;69501;42.124;24.722;2023-06-26T06:29:28;26.90;46.40
80176;DHT22;69501;42.124;24.722;2023-06-26T06:31:54;26.80;46.60
80176;DHT22;69501;42.124;24.722;2023-06-26T06:34:20;26.90;46.80
80176;DHT22;69501;42.124;24.722;2023-06-26T06:36:46;26.90;46.60
80176;DHT22;69501;42.124;24.722;2023-06-26T06:39:12;26.80;46.60
80176;DHT22;69501;42.124;24.722;2023-06-26T06:41:38;26.70;46.60
80176;DHT22;69501;42.124;24.722;2023-06-26T06:44:03;26.70;46.90
80176;DHT22;69501;42.124;24.722;2023-06-26T06:46:29;26.70;47.00
80176;DHT22;69501;42.124;24.722;2023-06-26T06:48:55;26.60;46.70
80176;DHT22;69501;42.124;24.722;2023-06-26T06:51:22;26.60;46.90
80176;DHT22;69501;42.124;24.722;2023-06-26T06:53:48;26.70;47.30
80176;DHT22;69501;42.124;24.722;2023-06-26T06:56:13;26.80;46.80
80176;DHT22;69501;42.124;24.722;2023-06-26T06:58:39;26.70;46.20
80176;DHT22;69501;42.124;24.722;2023-06-26T07:01:09;26.70;46.20
80176;DHT22;69501;42.124;24.722;2023-06-26T07:03:35;26.70;46.40
80176;DHT22;69501;42.124;24.722;2023-06-26T07:06:01;26.60;46.30
80176;DHT22;69501;42.124;24.722;2023-06-26T07:08:28;26.50;46.50
80176;DHT22;69501;42.124;24.722;2023-06-26T07:10:54;26.60;46.30
80176;DHT22;69501;42.124;24.722;2023-06-26T07:13:22;26.70;46.30
80176;DHT22;69501;42.124;24.722;2023-06-26T07:15:47;26.70;45.40
80176;DHT22;69501;42.124;24.722;2023-06-26T07:18:14;26.80;45.60
80176;DHT22;69501;42.124;24.722;2023-06-26T07:20:40;26.90;45.60
80176;DHT22;69501;42.124;24.722;2023-06-26T07:23:06;27.00;45.10
80176;DHT22;69501;42.124;24.722;2023-06-26T07:25:31;27.10;43.80
80176;DHT22;69501;42.124;24.722;2023-06-26T07:27:57;27.20;44.20
80176;DHT22;69501;42.124;24.722;2023-06-26T07:30:23;27.30;45.30
80176;DHT22;69501;42.124;24.722;2023-06-26T07:32:49;27.40;44.90
80176;DHT22;69501;42.124;24.722;2023-06-26T07:35:15;27.50;44.30
80176;DHT22;69501;42.124;24.722;2023-06-26T07:37:41;27.60;44.70
80176;DHT22;69501;42.124;24.722;2023-06-26T07:40:07;27.70;43.70
80176;DHT22;69501;42.124;24.722;2023-06-26T07:42:34;27.80;42.40
80176;DHT22;69501;42.124;24.722;2023-06-26T07:44:59;27.90;42.20
80176;DHT22;69501;42.124;24.722;2023-06-26T07:47:25;28.00;42.50
80176;DHT22;69501;42.124;24.722;2023-06-26T07:49:51;28.00;42.80
80176;DHT22;69501;42.124;24.722;2023-06-26T07:52:17;28.10;42.80
80176;DHT22;69501;42.124;24.722;2023-06-26T07:54:43;28.30;42.70
80176;DHT22;69501;42.124;24.722;2023-06-26T07:57:09;28.40;42.70
80176;DHT22;69501;42.124;24.722;2023-06-26T07:59:36;28.40;41.40
80176;DHT22;69501;42.124;24.722;2023-06-26T08:02:02;28.50;40.70
80176;DHT22;69501;42.124;24.722;2023-06-26T08:04:29;28.60;40.50
80176;DHT22;69501;42.124;24.722;2023-06-26T08:06:58;28.60;40.70
80176;DHT22;69501;42.124;24.722;2023-06-26T08:09:26;28.70;39.50
80176;DHT22;69501;42.124;24.722;2023-06-26T08:11:53;28.70;39.40
80176;DHT22;69501;42.124;24.722;2023-06-26T08:14:18;28.60;39.20
80176;DHT22;69501;42.124;24.722;2023-06-26T08:16:46;28.60;39.30
80176;DHT22;69501;42.124;24.722;2023-06-26T08:19:13;28.50;39.10
80176;DHT22;69501;42.124;24.722;2023-06-26T08:21:40;28.40;39.40
80176;DHT22;69501;42.124;24.722;2023-06-26T08:24:06;28.40;40.30
80176;DHT22;69501;42.124;24.722;2023-06-26T08:26:31;28.50;40.10
80176;DHT22;69501;42.124;24.722;2023-06-26T08:28:57;28.50;39.60
80176;DHT22;69501;42.124;24.722;2023-06-26T08:31:23;28.50;39.90
80176;DHT22;69501;42.124;24.722;2023-06-26T08:33:48;28.50;39.90
80176;DHT22;69501;42.124;24.722;2023-06-26T08:36:14;28.60;39.60
80176;DHT22;69501;42.124;24.722;2023-06-26T08:38:40;28.60;39.70
80176;DHT22;69501;42.124;24.722;2023-06-26T08:41:07;28.70;40.10
80176;DHT22;69501;42.124;24.722;2023-06-26T08:43:33;28.70;40.50
80176;DHT22;69501;42.124;24.722;2023-06-26T08:45:59;28.80;39.80
80176;DHT22;69501;42.124;24.722;2023-06-26T08:48:25;28.80;39.40
80176;DHT22;69501;42.124;24.722;2023-06-26T08:50:53;28.80;39.30
80176;DHT22;69501;42.124;24.722;2023-06-26T08:56:15;28.90;39.10
80176;DHT22;69501;42.124;24.722;2023-06-26T08:58:42;28.90;39.20
80176;DHT22;69501;42.124;24.722;2023-06-26T09:01:08;29.00;38.60
80176;DHT22;69501;42.124;24.722;2023-06-26T09:03:35;28.90;38.60
80176;DHT22;69501;42.124;24.722;2023-06-26T09:06:00;28.90;38.90
80176;DHT22;69501;42.124;24.722;2023-06-26T09:08:26;28.90;38.80
80176;DHT22;69501;42.124;24.722;2023-06-26T09:10:52;28.90;38.40
80176;DHT22;69501;42.124;24.722;2023-06-26T09:13:18;28.90;38.50
80176;DHT22;69501;42.124;24.722;2023-06-26T09:15:45;28.80;38.70
80176;DHT22;69501;42.124;24.722;2023-06-26T09:18:11;28.70;38.80
80176;DHT22;69501;42.124;24.722;2023-06-26T09:20:37;28.70;38.70
80176;DHT22;69501;42.124;24.722;2023-06-26T09:23:03;28.70;38.90
80176;DHT22;69501;42.124;24.722;2023-06-26T09:25:29;28.70;38.70
80176;DHT22;69501;42.124;24.722;2023-06-26T09:27:56;28.80;38.30
80176;DHT22;69501;42.124;24.722;2023-06-26T09:30:22;28.80;38.20
80176;DHT22;69501;42.124;24.722;2023-06-26T09:32:47;28.80;38.30
80176;DHT22;69501;42.124;24.722;2023-06-26T09:35:15;28.80;37.80
80176;DHT22;69501;42.124;24.722;2023-06-26T09:37:40;28.80;37.90
80176;DHT22;69501;42.124;24.722;2023-06-26T09:40:07;28.80;38.10
80176;DHT22;69501;42.124;24.722;2023-06-26T09:42:33;28.90;38.20
80176;DHT22;69501;42.124;24.722;2023-06-26T09:44:59;28.90;38.40
80176;DHT22;69501;42.124;24.722;2023-06-26T09:47:25;29.00;38.70
80176;DHT22;69501;42.124;24.722;2023-06-26T09:49:51;29.00;38.80
80176;DHT22;69501;42.124;24.722;2023-06-26T09:52:18;29.00;39.10
80176;DHT22;69501;42.124;24.722;2023-06-26T09:54:45;29.00;39.60
80176;DHT22;69501;42.124;24.722;2023-06-26T09:57:12;29.00;40.30
80176;DHT22;69501;42.124;24.722;2023-06-26T09:59:39;29.00;41.10
80176;DHT22;69501;42.124;24.722;2023-06-26T10:02:05;28.90;41.60
80176;DHT22;69501;42.124;24.722;2023-06-26T10:04:31;28.90;42.50
80176;DHT22;69501;42.124;24.722;2023-06-26T10:07:00;28.80;43.90
80176;DHT22;69501;42.124;24.722;2023-06-26T10:09:27;28.80;43.00
80176;DHT22;69501;42.124;24.722;2023-06-26T10:12:02;28.70;43.10
80176;DHT22;69501;42.124;24.722;2023-06-26T10:14:39;28.80;43.20
80176;DHT22;69501;42.124;24.722;2023-06-26T10:17:10;28.80;43.50
80176;DHT22;69501;42.124;24.722;2023-06-26T10:19:39;28.90;44.20
80176;DHT22;69501;42.124;24.722;2023-06-26T10:22:07;28.80;45.30
80176;DHT22;69501;42.124;24.722;2023-06-26T10:24:35;28.90;44.90
80176;DHT22;69501;42.124;24.722;2023-06-26T10:27:10;28.90;44.60
80176;DHT22;69501;42.124;24.722;2023-06-26T10:29:37;28.90;45.00
80176;DHT22;69501;42.124;24.722;2023-06-26T10:32:04;29.00;45.50
80176;DHT22;69501;42.124;24.722;2023-06-26T10:34:31;29.00;45.10
80176;DHT22;69501;42.124;24.722;2023-06-26T10:37:01;29.00;44.50
80176;DHT22;69501;42.124;24.722;2023-06-26T10:39:27;29.10;44.20
80176;DHT22;69501;42.124;24.722;2023-06-26T10:42:08;29.20;43.80
80176;DHT22;69501;42.124;24.722;2023-06-26T10:44:44;29.30;42.90
80176;DHT22;69501;42.124;24.722;2023-06-26T10:47:11;29.50;42.00
80176;DHT22;69501;42.124;24.722;2023-06-26T10:49:38;29.60;41.40
80176;DHT22;69501;42.124;24.722;2023-06-26T10:52:08;29.70;41.00
80176;DHT22;69501;42.124;24.722;2023-06-26T10:54:34;29.80;40.10
80176;DHT22;69501;42.124;24.722;2023-06-26T10:57:01;29.80;39.30
80176;DHT22;69501;42.124;24.722;2023-06-26T10:59:29;29.90;38.70
80176;DHT22;69501;42.124;24.722;2023-06-26T11:02:02;30.10;38.20
80176;DHT22;69501;42.124;24.722;2023-06-26T11:04:45;30.20;37.30
80176;DHT22;69501;42.124;24.722;2023-06-26T11:07:24;30.30;36.80
80176;DHT22;69501;42.124;24.722;2023-06-26T11:10:09;30.40;36.60
80176;DHT22;69501;42.124;24.722;2023-06-26T11:15:17;30.50;41.40
80176;DHT22;69501;42.124;24.722;2023-06-26T11:17:44;30.40;41.00
80176;DHT22;69501;42.124;24.722;2023-06-26T11:20:12;30.40;40.80
80176;DHT22;69501;42.124;24.722;2023-06-26T11:22:39;30.30;40.90
80176;DHT22;69501;42.124;24.722;2023-06-26T11:25:06;30.20;40.70
80176;DHT22;69501;42.124;24.722;2023-06-26T11:27:39;30.00;40.40
80176;DHT22;69501;42.124;24.722;2023-06-26T11:30:07;29.90;40.30
80176;DHT22;69501;42.124;24.722;2023-06-26T11:32:33;29.80;40.10
80176;DHT22;69501;42.124;24.722;2023-06-26T11:35:00;29.70;40.20
80176;DHT22;69501;42.124;24.722;2023-06-26T11:37:28;29.70;40.30
80176;DHT22;69501;42.124;24.722;2023-06-26T11:39:54;29.70;40.50
80176;DHT22;69501;42.124;24.722;2023-06-26T11:42:20;29.70;40.20
80176;DHT22;69501;42.124;24.722;2023-06-26T11:44:47;29.80;40.00
80176;DHT22;69501;42.124;24.722;2023-06-26T11:47:20;29.80;39.10
80176;DHT22;69501;42.124;24.722;2023-06-26T11:49:47;29.80;39.20
80176;DHT22;69501;42.124;24.722;2023-06-26T11:52:13;29.80;39.30
80176;DHT22;69501;42.124;24.722;2023-06-26T11:54:40;29.80;39.30
80176;DHT22;69501;42.124;24.722;2023-06-26T11:57:07;29.80;39.10
80176;DHT22;69501;42.124;24.722;2023-06-26T11:59:37;29.90;39.00
80176;DHT22;69501;42.124;24.722;2023-06-26T12:02:07;29.90;39.20
80176;DHT22;69501;42.124;24.722;2023-06-26T12:04:33;29.90;40.40
80176;DHT22;69501;42.124;24.722;2023-06-26T12:07:01;29.90;41.90
80176;DHT22;69501;42.124;24.722;2023-06-26T12:09:29;29.90;42.80
80176;DHT22;69501;42.124;24.722;2023-06-26T12:11:56;29.80;42.80
80176;DHT22;69501;42.124;24.722;2023-06-26T12:14:24;29.80;42.80
80176;DHT22;69501;42.124;24.722;2023-06-26T12:16:50;29.90;42.70
80176;DHT22;69501;42.124;24.722;2023-06-26T12:19:16;30.00;42.50
80176;DHT22;69501;42.124;24.722;2023-06-26T12:21:45;30.20;42.10
80176;DHT22;69501;42.124;24.722;2023-06-26T12:24:17;30.40;41.30
80176;DHT22;69501;42.124;24.722;2023-06-26T12:26:44;30.70;40.80
80176;DHT22;69501;42.124;24.722;2023-06-26T12:29:12;30.80;39.80
80176;DHT22;69501;42.124;24.722;2023-06-26T12:32:00;31.00;37.80
80176;DHT22;69501;42.124;24.722;2023-06-26T12:34:33;31.10;33.30
80176;DHT22;69501;42.124;24.722;2023-06-26T12:37:06;31.20;33.80
80176;DHT22;69501;42.124;24.722;2023-06-26T12:39:52;31.20;32.50
80176;DHT22;69501;42.124;24.722;2023-06-26T12:42:20;31.20;33.00
80176;DHT22;69501;42.124;24.722;2023-06-26T12:44:47;31.10;33.40
80176;DHT22;69501;42.124;24.722;2023-06-26T12:47:14;31.10;33.60
80176;DHT22;69501;42.124;24.722;2023-06-26T12:49:42;31.20;33.60
80176;DHT22;69501;42.124;24.722;2023-06-26T12:52:14;31.30;34.00
80176;DHT22;69501;42.124;24.722;2023-06-26T12:54:42;31.60;34.80
80176;DHT22;69501;42.124;24.722;2023-06-26T12:57:08;31.70;35.40
80176;DHT22;69501;42.124;24.722;2023-06-26T12:59:37;31.80;35.30
80176;DHT22;69501;42.124;24.722;2023-06-26T13:02:04;31.90;35.50
80176;DHT22;69501;42.124;24.722;2023-06-26T13:04:30;31.70;35.80
80176;DHT22;69501;42.124;24.722;2023-06-26T13:06:56;31.60;36.10
80176;DHT22;69501;42.124;24.722;2023-06-26T13:09:23;31.50;37.00
80176;DHT22;69501;42.124;24.722;2023-06-26T13:11:49;31.40;38.70
80176;DHT22;69501;42.124;24.722;2023-06-26T13:14:15;31.20;39.90
80176;DHT22;69501;42.124;24.722;2023-06-26T13:16:41;31.00;40.50
80176;DHT22;69501;42.124;24.722;2023-06-26T13:19:07;30.90;41.20
80176;DHT22;69501;42.124;24.722;2023-06-26T13:21:33;30.70;42.20
80176;DHT22;69501;42.124;24.722;2023-06-26T13:23:59;30.70;43.20
80176;DHT22;69501;42.124;24.722;2023-06-26T13:26:26;30.60;43.70
80176;DHT22;69501;42.124;24.722;2023-06-26T13:28:54;30.40;44.20
80176;DHT22;69501;42.124;24.722;2023-06-26T13:31:20;30.10;44.20
80176;DHT22;69501;42.124;24.722;2023-06-26T13:33:47;29.80;45.00
80176;DHT22;69501;42.124;24.722;2023-06-26T13:36:15;29.30;45.80
80176;DHT22;69501;42.124;24.722;2023-06-26T13:38:43;29.00;46.90
80176;DHT22;69501;42.124;24.722;2023-06-26T13:41:08;28.80;47.90
80176;DHT22;69501;42.124;24.722;2023-06-26T13:43:34;28.60;48.50
80176;DHT22;69501;42.124;24.722;2023-06-26T13:46:00;28.40;49.20
80176;DHT22;69501;42.124;24.722;2023-06-26T13:48:25;28.20;49.90
80176;DHT22;69501;42.124;24.722;2023-06-26T13:50:52;27.90;50.60
80176;DHT22;69501;42.124;24.722;2023-06-26T13:53:18;27.80;50.80
80176;DHT22;69501;42.124;24.722;2023-06-26T13:55:44;27.60;50.70
80176;DHT22;69501;42.124;24.722;2023-06-26T13:58:10;27.40;50.60
80176;DHT22;69501;42.124;24.722;2023-06-26T14:00:37;27.40;51.10
80176;DHT22;69501;42.124;24.722;2023-06-26T14:03:04;27.30;51.30
80176;DHT22;69501;42.124;24.722;2023-06-26T14:05:33;27.10;52.00
80176;DHT22;69501;42.124;24.722;2023-06-26T14:08:01;27.00;52.00
80176;DHT22;69501;42.124;24.722;2023-06-26T14:10:27;26.90;52.10
80176;DHT22;69501;42.124;24.722;2023-06-26T14:12:53;26.90;52.30
80176;DHT22;69501;42.124;24.722;2023-06-26T14:15:18;27.00;51.90
80176;DHT22;69501;42.124;24.722;2023-06-26T14:17:44;27.10;51.50
80176;DHT22;69501;42.124;24.722;2023-06-26T14:20:10;27.10;50.90
80176;DHT22;69501;42.124;24.722;2023-06-26T14:22:42;27.10;51.00
80176;DHT22;69501;42.124;24.722;2023-06-26T14:25:08;27.00;51.00
80176;DHT22;69501;42.124;24.722;2023-06-26T14:27:35;26.90;51.00
80176;DHT22;69501;42.124;24.722;2023-06-26T14:30:05;26.80;51.00
80176;DHT22;69501;42.124;24.722;2023-06-26T14:32:30;26.80;51.20
80176;DHT22;69501;42.124;24.722;2023-06-26T14:34:57;26.80;51.30
80176;DHT22;69501;42.124;24.722;2023-06-26T14:37:22;26.70;51.00
80176;DHT22;69501;42.124;24.722;2023-06-26T14:39:49;26.60;51.30
80176;DHT22;69501;42.124;24.722;2023-06-26T14:42:15;26.60;51.60
80176;DHT22;69501;42.124;24.722;2023-06-26T14:44:41;26.60;51.70
80176;DHT22;69501;42.124;24.722;2023-06-26T14:47:07;26.70;51.30
80176;DHT22;69501;42.124;24.722;2023-06-26T14:49:32;26.80;51.40
80176;DHT22;69501;42.124;24.722;2023-06-26T14:51:58;26.80;51.40
80176;DHT22;69501;42.124;24.722;2023-06-26T14:54:25;26.90;51.50
80176;DHT22;69501;42.124;24.722;2023-06-26T14:56:50;27.00;51.60
80176;DHT22;69501;42.124;24.722;2023-06-26T14:59:16;27.20;50.70
80176;DHT22;69501;42.124;24.722;2023-06-26T15:01:42;27.30;50.10
80176;DHT22;69501;42.124;24.722;2023-06-26T15:04:08;27.40;49.90
80176;DHT22;69501;42.124;24.722;2023-06-26T15:06:34;27.50;49.60
80176;DHT22;69501;42.124;24.722;2023-06-26T15:09:00;27.50;48.60
80176;DHT22;69501;42.124;24.722;2023-06-26T15:11:26;27.60;48.60
80176;DHT22;69501;42.124;24.722;2023-06-26T15:13:52;27.60;48.30
80176;DHT22;69501;42.124;24.722;2023-06-26T15:16:17;27.60;48.40
80176;DHT22;69501;42.124;24.722;2023-06-26T15:18:44;27.60;47.90
80176;DHT22;69501;42.124;24.722;2023-06-26T15:21:10;27.60;47.60
80176;DHT22;69501;42.124;24.722;2023-06-26T15:23:35;27.70;47.30
80176;DHT22;69501;42.124;24.722;2023-06-26T15:26:01;27.80;47.40